Time;durP1;ratioP1;P1;durP2;ratioP2;P2;SDS_P1;SDS_P2;PMS_P1;PMS_P2;Temp;Humidity;BMP_temperature;BMP_pressure;BME280_temperature;BME280_humidity;BME280_pressure;Samples;Min_cycle;Max_cycle;Signal;HPM_P1;HPM_P2
2023/10/28 00:00:40;;;;;;;;;;;;;;;;;;5050090;28;826;-73
2023/10/28 00:03:05;;;;;;;;;;;;;;;;;;5049657;28;936;-73
2023/10/28 00:05:31;;;;;;;;;;;;;;;;;;5049083;28;904;-73
2023/10/28 00:07:56;;;;;;;;;;;;;;;;;;5050305;28;1973;-73
2023/10/28 00:10:21;;;;;;;;;;;;;;;;;;5050760;28;896;-73
2023/10/28 00:12:49;;;;;;;;;;;;;;;;;;5050270;28;860;-73
2023/10/28 00:15:18;;;;;;;;;;;;;;;;;;5049589;28;1058;-73
2023/10/28 00:17:43;;;;;;;;;;;;;;;;;;5050524;28;877;-73
2023/10/28 00:20:12;;;;;;;;;;;;;;;;;;5049293;28;920;-73
2023/10/28 00:22:38;;;;;;;;;;;;;;;;;;5051082;28;825;-73
2023/10/28 00:25:05;;;;;;;;;;;;;;;;;;5051143;28;809;-73
2023/10/28 00:27:32;;;;;;;;;;;;;;;;;;5051125;28;864;-73
2023/10/28 00:29:58;;;;;;;;;;;;;;;;;;5051018;28;1906;-73
2023/10/28 00:32:24;;;;;;;;;;;;;;;;;;5051256;28;833;-73
2023/10/28 00:34:49;;;;;;;;;;;;;;;;;;5050175;28;829;-73
2023/10/28 00:37:15;;;;;;;;;;;;;;;;;;5050157;28;944;-73
2023/10/28 00:39:42;;;;;;;;;;;;;;;;;;5049280;28;837;-73
2023/10/28 00:42:07;;;;;;;;;;;;;;;;;;5050192;28;852;-73
2023/10/28 00:44:32;;;;;;;;;;;;;;;;;;5050199;28;833;-74
2023/10/28 00:46:58;;;;;;;;;;;;;;;;;;5049767;28;1112;-73
2023/10/28 00:49:23;;;;;;;;;;;;;;;;;;5049532;28;1959;-73
2023/10/28 00:51:49;;;;;;;;;;;;;;;;;;5050354;28;884;-73
2023/10/28 00:54:14;;;;;;;;;;;;;;;;;;5048980;28;917;-73
2023/10/28 00:56:40;;;;;;;;;;;;;;;;;;5050385;28;876;-73
2023/10/28 00:59:06;;;;;;;;;;;;;;;;;;5049863;28;908;-73
2023/10/28 01:01:31;;;;;;;;;;;;;;;;;;5048981;28;1247;-73
2023/10/28 01:03:57;;;;;;;;;;;;;;;;;;5052390;28;805;-73
2023/10/28 01:06:22;;;;;;;;;;;;;;;;;;5052634;28;1477;-73
2023/10/28 01:08:48;;;;;;;;;;;;;;;;;;5052039;28;2005;-73
2023/10/28 01:11:14;;;;;;;;;;;;;;;;;;5051958;28;1148;-73
2023/10/28 01:13:39;;;;;;;;;;;;;;;;;;5053088;28;1079;-73
2023/10/28 01:16:08;;;;;;;;;;;;;;;;;;5053051;28;884;-74
2023/10/28 01:18:33;;;;;;;;;;;;;;;;;;5053146;28;876;-73
2023/10/28 01:21:02;;;;;;;;;;;;;;;;;;5053231;28;829;-73
2023/10/28 01:23:28;;;;;;;;;;;;;;;;;;5053234;28;959;-73
2023/10/28 01:25:53;;;;;;;;;;;;;;;;;;5051450;28;781;-73
2023/10/28 01:28:18;;;;;;;;;;;;;;;;;;5053094;28;1957;-73
2023/10/28 01:30:43;;;;;;;;;;;;;;;;;;5053115;28;785;-73
2023/10/28 01:33:09;;;;;;;;;;;;;;;;;;5050203;28;1274;-73
2023/10/28 01:35:34;;;;;;;;;;;;;;;;;;5059184;28;1149;-72
2023/10/28 01:37:59;;;;;;;;;;;;;;;;;;5051772;28;1353;-72
2023/10/28 01:40:25;;;;;;;;;;;;;;;;;;5053223;28;904;-72
2023/10/28 01:42:50;;;;;;;;;;;;;;;;;;5053156;28;841;-72
2023/10/28 01:45:15;;;;;;;;;;;;;;;;;;5052280;28;1054;-72
2023/10/28 01:47:42;;;;;;;;;;;;;;;;;;5051838;28;983;-72
2023/10/28 01:50:07;;;;;;;;;;;;;;;;;;5052675;28;1967;-73
2023/10/28 01:52:33;;;;;;;;;;;;;;;;;;5051162;28;1176;-72
2023/10/28 01:54:58;;;;;;;;;;;;;;;;;;5050901;28;959;-72
2023/10/28 01:57:24;;;;;;;;;;;;;;;;;;5052624;28;1046;-73
2023/10/28 01:59:50;;;;;;;;;;;;;;;;;;5051024;28;1483;-73
2023/10/28 02:02:15;;;;;;;;;;;;;;;;;;5051995;28;814;-73
2023/10/28 02:04:41;;;;;;;;;;;;;;;;;;5053213;28;979;-73
2023/10/28 02:07:06;;;;;;;;;;;;;;;;;;5053312;28;940;-73
2023/10/28 02:09:35;;;;;;;;;;;;;;;;;;5035970;28;1961;-73
2023/10/28 02:12:04;;;;;;;;;;;;;;;;;;5053424;28;872;-73
2023/10/28 02:14:29;;;;;;;;;;;;;;;;;;5052723;28;1378;-73
2023/10/28 02:16:55;;;;;;;;;;;;;;;;;;5053273;28;798;-73
2023/10/28 02:19:21;;;;;;;;;;;;;;;;;;5053364;28;805;-73
2023/10/28 02:21:46;;;;;;;;;;;;;;;;;;5053119;28;861;-72
2023/10/28 02:24:12;;;;;;;;;;;;;;;;;;5052219;28;877;-73
2023/10/28 02:26:37;;;;;;;;;;;;;;;;;;5052535;28;821;-72
2023/10/28 02:29:02;;;;;;;;;;;;;;;;;;5050566;28;1914;-73
2023/10/28 02:31:30;;;;;;;;;;;;;;;;;;5051891;28;1168;-73
2023/10/28 02:33:56;;;;;;;;;;;;;;;;;;5051444;28;971;-73
2023/10/28 02:36:21;;;;;;;;;;;;;;;;;;5052268;28;833;-73
2023/10/28 02:38:46;;;;;;;;;;;;;;;;;;5051615;28;856;-72
2023/10/28 02:41:12;;;;;;;;;;;;;;;;;;5050268;28;1090;-73
2023/10/28 02:43:39;;;;;;;;;;;;;;;;;;5051780;28;884;-73
2023/10/28 02:46:05;;;;;;;;;;;;;;;;;;5051661;28;950;-73
2023/10/28 02:48:30;;;;;;;;;;;;;;;;;;5052042;28;1882;-73
2023/10/28 02:50:55;;;;;;;;;;;;;;;;;;5051124;28;848;-73
2023/10/28 02:53:21;;;;;;;;;;;;;;;;;;5050748;28;1229;-73
2023/10/28 02:55:46;;;;;;;;;;;;;;;;;;5051944;28;956;-73
2023/10/28 02:58:12;;;;;;;;;;;;;;;;;;5051293;28;829;-73
2023/10/28 03:00:37;;;;;;;;;;;;;;;;;;5051744;28;896;-73
2023/10/28 03:03:02;;;;;;;;;;;;;;;;;;5051587;28;867;-73
2023/10/28 03:05:29;;;;;;;;;;;;;;;;;;5052395;28;876;-73
2023/10/28 03:07:54;;;;;;;;;;;;;;;;;;5033565;28;1952;-73
2023/10/28 03:10:20;;;;;;;;;;;;;;;;;;5051737;28;892;-73
2023/10/28 03:12:46;;;;;;;;;;;;;;;;;;5051586;28;841;-73
2023/10/28 03:15:12;;;;;;;;;;;;;;;;;;5049493;28;1592;-73
2023/10/28 03:17:38;;;;;;;;;;;;;;;;;;5051364;28;865;-73
2023/10/28 03:20:04;;;;;;;;;;;;;;;;;;5051278;28;920;-73
2023/10/28 03:22:29;;;;;;;;;;;;;;;;;;5049899;28;852;-73
2023/10/28 03:24:55;;;;;;;;;;;;;;;;;;5049428;28;1058;-73
2023/10/28 03:27:20;;;;;;;;;;;;;;;;;;5050196;28;1289;-73
2023/10/28 03:29:45;;;;;;;;;;;;;;;;;;5049696;28;1910;-73
2023/10/28 03:32:11;;;;;;;;;;;;;;;;;;5032910;28;782;-73
2023/10/28 03:34:36;;;;;;;;;;;;;;;;;;5051027;28;1070;-73
2023/10/28 03:37:02;;;;;;;;;;;;;;;;;;5050343;28;995;-73
2023/10/28 03:39:28;;;;;;;;;;;;;;;;;;5051081;28;841;-73
2023/10/28 03:41:53;;;;;;;;;;;;;;;;;;5049454;28;1213;-73
2023/10/28 03:44:19;;;;;;;;;;;;;;;;;;5050681;28;856;-73
2023/10/28 03:46:45;;;;;;;;;;;;;;;;;;5050790;28;890;-73
2023/10/28 03:49:10;;;;;;;;;;;;;;;;;;5048656;28;1967;-72
2023/10/28 03:51:36;;;;;;;;;;;;;;;;;;5050850;28;908;-73
2023/10/28 03:54:02;;;;;;;;;;;;;;;;;;5049893;28;869;-72
2023/10/28 03:56:28;;;;;;;;;;;;;;;;;;5050651;28;845;-73
2023/10/28 03:58:54;;;;;;;;;;;;;;;;;;5050404;28;825;-73
2023/10/28 04:01:19;;;;;;;;;;;;;;;;;;5048368;28;1180;-73
2023/10/28 04:03:44;;;;;;;;;;;;;;;;;;5058346;28;1211;-72
2023/10/28 04:06:09;;;;;;;;;;;;;;;;;;5050609;28;1219;-72
2023/10/28 04:08:35;;;;;;;;;;;;;;;;;;5064957;28;1898;-72
2023/10/28 04:11:00;;;;;;;;;;;;;;;;;;5070879;28;1011;-72
2023/10/28 04:13:25;;;;;;;;;;;;;;;;;;5071158;28;1203;-72
2023/10/28 04:15:50;;;;;;;;;;;;;;;;;;5070193;28;932;-72
2023/10/28 04:18:16;;;;;;;;;;;;;;;;;;5070927;28;979;-72
2023/10/28 04:20:41;;;;;;;;;;;;;;;;;;5053499;28;1203;-72
2023/10/28 04:23:06;;;;;;;;;;;;;;;;;;5069732;28;1357;-73
2023/10/28 04:25:31;;;;;;;;;;;;;;;;;;5072324;28;863;-72
2023/10/28 04:27:57;;;;;;;;;;;;;;;;;;5073489;28;1906;-72
2023/10/28 04:30:22;;;;;;;;;;;;;;;;;;5073497;28;852;-73
2023/10/28 04:32:48;;;;;;;;;;;;;;;;;;5073418;28;923;-73
2023/10/28 04:35:14;;;;;;;;;;;;;;;;;;5070260;28;796;-73
2023/10/28 04:37:39;;;;;;;;;;;;;;;;;;5071218;28;904;-73
2023/10/28 04:40:05;;;;;;;;;;;;;;;;;;5073543;28;864;-73
2023/10/28 04:42:31;;;;;;;;;;;;;;;;;;5073492;28;857;-73
2023/10/28 04:44:56;;;;;;;;;;;;;;;;;;5074811;28;942;-73
2023/10/28 04:47:21;;;;;;;;;;;;;;;;;;5073281;28;959;-73
2023/10/28 04:49:46;;;;;;;;;;;;;;;;;;5074174;28;1953;-72
2023/10/28 04:52:12;;;;;;;;;;;;;;;;;;5074242;28;907;-72
2023/10/28 04:54:40;;;;;;;;;;;;;;;;;;5073088;28;1269;-73
2023/10/28 04:57:05;;;;;;;;;;;;;;;;;;5073629;28;1036;-73
2023/10/28 04:59:30;;;;;;;;;;;;;;;;;;5075152;28;1062;-73
2023/10/28 05:01:56;;;;;;;;;;;;;;;;;;5074211;28;825;-73
2023/10/28 05:04:24;;;;;;;;;;;;;;;;;;5073591;28;936;-73
2023/10/28 05:06:49;;;;;;;;;;;;;;;;;;5072355;28;934;-73
2023/10/28 05:09:15;;;;;;;;;;;;;;;;;;5073158;28;1906;-73
2023/10/28 05:11:40;;;;;;;;;;;;;;;;;;5072760;28;1378;-73
2023/10/28 05:14:06;;;;;;;;;;;;;;;;;;5072897;28;1061;-73
2023/10/28 05:16:31;;;;;;;;;;;;;;;;;;5073708;28;896;-73
2023/10/28 05:18:56;;;;;;;;;;;;;;;;;;5072234;28;904;-73
2023/10/28 05:21:22;;;;;;;;;;;;;;;;;;5073510;28;758;-73
2023/10/28 05:23:47;;;;;;;;;;;;;;;;;;5072140;28;840;-73
2023/10/28 05:26:12;;;;;;;;;;;;;;;;;;5072656;28;892;-73
2023/10/28 05:28:38;;;;;;;;;;;;;;;;;;5073334;28;1979;-73
2023/10/28 05:31:03;;;;;;;;;;;;;;;;;;5072759;28;923;-73
2023/10/28 05:33:29;;;;;;;;;;;;;;;;;;5071798;28;1211;-73
2023/10/28 05:35:54;;;;;;;;;;;;;;;;;;5073310;28;840;-73
2023/10/28 05:38:20;;;;;;;;;;;;;;;;;;5072882;28;897;-73
2023/10/28 05:40:45;;;;;;;;;;;;;;;;;;5073690;28;884;-73
2023/10/28 05:43:10;;;;;;;;;;;;;;;;;;5072792;28;1007;-73
2023/10/28 05:45:36;;;;;;;;;;;;;;;;;;5073044;28;966;-73
2023/10/28 05:48:01;;;;;;;;;;;;;;;;;;5072415;28;1960;-73
2023/10/28 05:50:27;;;;;;;;;;;;;;;;;;5070041;28;900;-73
2023/10/28 05:52:52;;;;;;;;;;;;;;;;;;5055199;28;1225;-73
2023/10/28 05:55:18;;;;;;;;;;;;;;;;;;5071073;28;1301;-73
2023/10/28 05:57:43;;;;;;;;;;;;;;;;;;5072821;28;864;-73
2023/10/28 06:00:10;;;;;;;;;;;;;;;;;;5070328;28;865;-73
2023/10/28 06:02:38;;;;;;;;;;;;;;;;;;5072825;28;887;-73
2023/10/28 06:05:06;;;;;;;;;;;;;;;;;;5070787;28;821;-73
2023/10/28 06:07:32;;;;;;;;;;;;;;;;;;5072432;28;1074;-73
2023/10/28 06:09:57;;;;;;;;;;;;;;;;;;5072373;28;1934;-73
2023/10/28 06:12:24;;;;;;;;;;;;;;;;;;5072288;28;864;-73
2023/10/28 06:14:50;;;;;;;;;;;;;;;;;;5073585;28;1061;-73
2023/10/28 06:17:16;;;;;;;;;;;;;;;;;;5073443;28;888;-73
2023/10/28 06:19:41;;;;;;;;;;;;;;;;;;5073953;28;849;-73
2023/10/28 06:22:07;;;;;;;;;;;;;;;;;;5073243;28;657;-73
2023/10/28 06:24:32;;;;;;;;;;;;;;;;;;5073701;28;845;-73
2023/10/28 06:26:59;;;;;;;;;;;;;;;;;;5071766;28;1158;-73
2023/10/28 06:29:24;;;;;;;;;;;;;;;;;;5073620;28;1895;-73
2023/10/28 06:31:50;;;;;;;;;;;;;;;;;;5071106;28;1199;-73
2023/10/28 06:34:15;;;;;;;;;;;;;;;;;;5071601;28;876;-73
2023/10/28 06:36:41;;;;;;;;;;;;;;;;;;5072515;28;959;-73
2023/10/28 06:39:08;;;;;;;;;;;;;;;;;;5070343;28;1285;-73
2023/10/28 06:41:34;;;;;;;;;;;;;;;;;;5072488;28;840;-73
2023/10/28 06:44:02;;;;;;;;;;;;;;;;;;5072100;28;816;-73
2023/10/28 06:46:28;;;;;;;;;;;;;;;;;;5071942;28;845;-73
2023/10/28 06:48:53;;;;;;;;;;;;;;;;;;5072136;28;1905;-73
2023/10/28 06:51:19;;;;;;;;;;;;;;;;;;5070958;28;983;-73
2023/10/28 06:53:44;;;;;;;;;;;;;;;;;;5071863;28;848;-73
2023/10/28 06:56:11;;;;;;;;;;;;;;;;;;5069612;28;1334;-73
2023/10/28 06:58:37;;;;;;;;;;;;;;;;;;5070402;28;1318;-73
2023/10/28 07:01:04;;;;;;;;;;;;;;;;;;5070925;28;895;-73
2023/10/28 07:03:29;;;;;;;;;;;;;;;;;;5068649;28;1262;-73
2023/10/28 07:05:55;;;;;;;;;;;;;;;;;;5068603;28;1281;-73
2023/10/28 07:08:20;;;;;;;;;;;;;;;;;;5070785;28;1901;-73
2023/10/28 07:10:46;;;;;;;;;;;;;;;;;;5071477;28;927;-73
2023/10/28 07:13:12;;;;;;;;;;;;;;;;;;5069204;28;1207;-73
2023/10/28 07:15:37;;;;;;;;;;;;;;;;;;5071618;28;841;-73
2023/10/28 07:18:05;;;;;;;;;;;;;;;;;;5070746;28;943;-73
2023/10/28 07:20:30;;;;;;;;;;;;;;;;;;5071236;28;797;-72
2023/10/28 07:22:55;;;;;;;;;;;;;;;;;;5071378;28;896;-73
2023/10/28 07:25:21;;;;;;;;;;;;;;;;;;5070170;28;947;-73
2023/10/28 07:27:46;;;;;;;;;;;;;;;;;;5071282;28;837;-73
2023/10/28 07:30:12;;;;;;;;;;;;;;;;;;5070508;28;1906;-73
2023/10/28 07:32:38;;;;;;;;;;;;;;;;;;5070627;28;885;-73
2023/10/28 07:35:05;;;;;;;;;;;;;;;;;;5070208;28;901;-73
2023/10/28 07:37:31;;;;;;;;;;;;;;;;;;5071042;28;998;-73
2023/10/28 07:39:57;;;;;;;;;;;;;;;;;;5071095;28;1094;-73
2023/10/28 07:42:23;;;;;;;;;;;;;;;;;;5070610;28;960;-74
2023/10/28 07:44:48;;;;;;;;;;;;;;;;;;5070758;28;857;-73
2023/10/28 07:47:13;;;;;;;;;;;;;;;;;;5070207;28;920;-73
2023/10/28 07:49:39;;;;;;;;;;;;;;;;;;5070943;28;1920;-73
2023/10/28 07:52:04;;;;;;;;;;;;;;;;;;5069727;28;1353;-73
2023/10/28 07:54:29;;;;;;;;;;;;;;;;;;5071950;28;955;-73
2023/10/28 07:56:54;;;;;;;;;;;;;;;;;;5072051;28;813;-73
2023/10/28 07:59:21;;;;;;;;;;;;;;;;;;5071365;28;888;-73
2023/10/28 08:01:46;;;;;;;;;;;;;;;;;;5071841;28;876;-73
2023/10/28 08:04:13;;;;;;;;;;;;;;;;;;5070778;28;955;-73
2023/10/28 08:06:39;;;;;;;;;;;;;;;;;;5070432;28;1026;-73
2023/10/28 08:09:05;;;;;;;;;;;;;;;;;;5070244;28;1966;-73
2023/10/28 08:11:30;;;;;;;;;;;;;;;;;;5053333;28;1234;-73
2023/10/28 08:13:55;;;;;;;;;;;;;;;;;;5070076;28;1051;-73
2023/10/28 08:16:23;;;;;;;;;;;;;;;;;;5069921;28;1350;-73
2023/10/28 08:18:49;;;;;;;;;;;;;;;;;;5070514;28;856;-73
2023/10/28 08:21:16;;;;;;;;;;;;;;;;;;5070033;28;852;-73
2023/10/28 08:23:41;;;;;;;;;;;;;;;;;;5070935;28;857;-73
2023/10/28 08:26:10;;;;;;;;;;;;;;;;;;5069829;28;936;-73
2023/10/28 08:28:39;;;;;;;;;;;;;;;;;;5070497;28;1914;-72
2023/10/28 08:31:07;;;;;;;;;;;;;;;;;;5070075;28;931;-73
2023/10/28 08:33:33;;;;;;;;;;;;;;;;;;5070546;28;1061;-73
2023/10/28 08:35:59;;;;;;;;;;;;;;;;;;5070603;28;895;-73
2023/10/28 08:38:24;;;;;;;;;;;;;;;;;;5069105;28;935;-73
2023/10/28 08:40:50;;;;;;;;;;;;;;;;;;5070349;28;825;-72
2023/10/28 08:43:15;;;;;;;;;;;;;;;;;;5067809;28;888;-72
2023/10/28 08:45:45;;;;;;;;;;;;;;;;;;5070523;28;899;-73
2023/10/28 08:48:14;;;;;;;;;;;;;;;;;;5067975;28;1913;-72
2023/10/28 08:50:40;;;;;;;;;;;;;;;;;;5070769;28;952;-72
2023/10/28 08:53:08;;;;;;;;;;;;;;;;;;5069573;28;800;-73
2023/10/28 08:55:36;;;;;;;;;;;;;;;;;;5069834;28;911;-73
2023/10/28 08:58:03;;;;;;;;;;;;;;;;;;5070427;28;872;-72
2023/10/28 09:00:30;;;;;;;;;;;;;;;;;;5070081;28;873;-73
2023/10/28 09:02:56;;;;;;;;;;;;;;;;;;5070622;28;825;-73
2023/10/28 09:05:21;;;;;;;;;;;;;;;;;;5069403;28;853;-73
2023/10/28 09:07:46;;;;;;;;;;;;;;;;;;5069494;28;1035;-72
2023/10/28 09:10:12;;;;;;;;;;;;;;;;;;5068741;28;1898;-73
2023/10/28 09:12:38;;;;;;;;;;;;;;;;;;5070017;28;940;-73
2023/10/28 09:15:04;;;;;;;;;;;;;;;;;;5069028;28;1168;-72
2023/10/28 09:17:29;;;;;;;;;;;;;;;;;;5069568;28;928;-72
2023/10/28 09:19:56;;;;;;;;;;;;;;;;;;5070087;28;839;-73
2023/10/28 09:22:21;;;;;;;;;;;;;;;;;;5067721;28;844;-73
2023/10/28 09:24:47;;;;;;;;;;;;;;;;;;5071448;28;844;-73
2023/10/28 09:27:13;;;;;;;;;;;;;;;;;;5073311;28;817;-73
2023/10/28 09:29:40;;;;;;;;;;;;;;;;;;5074403;28;1906;-73
2023/10/28 09:32:06;;;;;;;;;;;;;;;;;;5073801;28;953;-72
2023/10/28 09:34:34;;;;;;;;;;;;;;;;;;5074032;28;885;-73
2023/10/28 09:37:00;;;;;;;;;;;;;;;;;;5073551;28;848;-73
2023/10/28 09:39:26;;;;;;;;;;;;;;;;;;5072972;28;1601;-72
2023/10/28 09:41:52;;;;;;;;;;;;;;;;;;5073815;28;971;-73
2023/10/28 09:44:18;;;;;;;;;;;;;;;;;;5072940;28;881;-72
2023/10/28 09:46:45;;;;;;;;;;;;;;;;;;5072005;28;1155;-73
2023/10/28 09:49:13;;;;;;;;;;;;;;;;;;5070969;28;1972;-73
2023/10/28 09:51:39;;;;;;;;;;;;;;;;;;5072853;28;943;-72
2023/10/28 09:54:08;;;;;;;;;;;;;;;;;;5072303;28;952;-72
2023/10/28 09:56:36;;;;;;;;;;;;;;;;;;5072817;28;833;-72
2023/10/28 09:59:06;;;;;;;;;;;;;;;;;;5072753;28;797;-72
2023/10/28 10:01:37;;;;;;;;;;;;;;;;;;5072573;28;853;-72
2023/10/28 10:04:04;;;;;;;;;;;;;;;;;;5071080;28;1322;-73
2023/10/28 10:06:29;;;;;;;;;;;;;;;;;;5072458;28;884;-73
2023/10/28 10:08:55;;;;;;;;;;;;;;;;;;5070902;28;1963;-72
2023/10/28 10:11:20;;;;;;;;;;;;;;;;;;5071401;28;962;-73
2023/10/28 10:13:46;;;;;;;;;;;;;;;;;;5072557;28;1161;-72
2023/10/28 10:16:17;;;;;;;;;;;;;;;;;;5070337;28;1298;-73
2023/10/28 10:18:47;;;;;;;;;;;;;;;;;;5072678;28;903;-73
2023/10/28 10:21:14;;;;;;;;;;;;;;;;;;5072117;28;947;-73
2023/10/28 10:23:44;;;;;;;;;;;;;;;;;;5072403;28;943;-73
2023/10/28 10:26:20;;;;;;;;;;;;;;;;;;5070443;28;1227;-72
2023/10/28 10:28:48;;;;;;;;;;;;;;;;;;5072592;28;1912;-73
2023/10/28 10:31:16;;;;;;;;;;;;;;;;;;5070292;28;1334;-73
2023/10/28 10:33:42;;;;;;;;;;;;;;;;;;5072537;28;801;-73
2023/10/28 10:36:17;;;;;;;;;;;;;;;;;;5070873;28;968;-73
2023/10/28 10:38:43;;;;;;;;;;;;;;;;;;5071143;28;852;-72
2023/10/28 10:41:09;;;;;;;;;;;;;;;;;;5071999;28;1054;-73
2023/10/28 10:43:37;;;;;;;;;;;;;;;;;;5072041;28;908;-73
2023/10/28 10:46:03;;;;;;;;;;;;;;;;;;5071923;28;848;-73
2023/10/28 10:48:30;;;;;;;;;;;;;;;;;;5071729;28;2103;-72
2023/10/28 10:50:56;;;;;;;;;;;;;;;;;;5072281;28;967;-72
2023/10/28 10:53:22;;;;;;;;;;;;;;;;;;5071547;28;837;-72
2023/10/28 10:55:48;;;;;;;;;;;;;;;;;;5071703;28;887;-72
2023/10/28 10:58:20;;;;;;;;;;;;;;;;;;5069919;28;1465;-72
2023/10/28 11:00:52;;;;;;;;;;;;;;;;;;5070525;28;1270;-72
2023/10/28 11:03:18;;;;;;;;;;;;;;;;;;5071113;28;919;-72
2023/10/28 11:05:44;;;;;;;;;;;;;;;;;;5070493;28;907;-72
2023/10/28 11:08:09;;;;;;;;;;;;;;;;;;5071250;28;1897;-72
2023/10/28 11:10:34;;;;;;;;;;;;;;;;;;5069589;28;1183;-72
2023/10/28 11:13:04;;;;;;;;;;;;;;;;;;5072004;28;1061;-72
2023/10/28 11:15:31;;;;;;;;;;;;;;;;;;5071649;28;1284;-73
2023/10/28 11:17:56;;;;;;;;;;;;;;;;;;5072573;28;979;-73
2023/10/28 11:20:22;;;;;;;;;;;;;;;;;;5071305;28;896;-73
2023/10/28 11:22:48;;;;;;;;;;;;;;;;;;5071973;28;920;-73
2023/10/28 11:25:13;;;;;;;;;;;;;;;;;;5071727;28;852;-73
2023/10/28 11:27:38;;;;;;;;;;;;;;;;;;5072005;28;860;-73
2023/10/28 11:30:05;;;;;;;;;;;;;;;;;;5071229;28;1969;-73
2023/10/28 11:32:36;;;;;;;;;;;;;;;;;;5071581;28;913;-73
2023/10/28 11:35:02;;;;;;;;;;;;;;;;;;5070410;28;1281;-73
2023/10/28 11:37:27;;;;;;;;;;;;;;;;;;5071118;28;848;-73
2023/10/28 11:39:54;;;;;;;;;;;;;;;;;;5071268;28;971;-73
2023/10/28 11:42:20;;;;;;;;;;;;;;;;;;5070286;28;892;-73
2023/10/28 11:44:49;;;;;;;;;;;;;;;;;;5070806;28;872;-73
2023/10/28 11:47:14;;;;;;;;;;;;;;;;;;5068951;28;1187;-73
2023/10/28 11:49:40;;;;;;;;;;;;;;;;;;5070340;28;1950;-73
2023/10/28 11:52:05;;;;;;;;;;;;;;;;;;5070359;28;935;-73
2023/10/28 11:54:30;;;;;;;;;;;;;;;;;;5069820;28;895;-73
2023/10/28 11:56:56;;;;;;;;;;;;;;;;;;5070444;28;971;-73
2023/10/28 11:59:22;;;;;;;;;;;;;;;;;;5068864;28;928;-73
2023/10/28 12:01:48;;;;;;;;;;;;;;;;;;5052777;28;1308;-73
2023/10/28 12:04:14;;;;;;;;;;;;;;;;;;5070147;28;868;-73
2023/10/28 12:06:41;;;;;;;;;;;;;;;;;;5070557;28;976;-73
2023/10/28 12:09:11;;;;;;;;;;;;;;;;;;5070927;28;1965;-73
2023/10/28 12:11:36;;;;;;;;;;;;;;;;;;5069417;28;879;-73
2023/10/28 12:14:01;;;;;;;;;;;;;;;;;;5070704;28;1264;-73
2023/10/28 12:16:29;;;;;;;;;;;;;;;;;;5070133;28;970;-73
2023/10/28 12:18:54;;;;;;;;;;;;;;;;;;5069658;28;1303;-73
2023/10/28 12:21:19;;;;;;;;;;;;;;;;;;5070270;28;840;-73
2023/10/28 12:23:45;;;;;;;;;;;;;;;;;;5069219;28;1365;-73
2023/10/28 12:26:13;;;;;;;;;;;;;;;;;;5070511;28;935;-73
2023/10/28 12:28:38;;;;;;;;;;;;;;;;;;5070212;28;1975;-73
2023/10/28 12:31:03;;;;;;;;;;;;;;;;;;5070803;28;860;-73
2023/10/28 12:33:29;;;;;;;;;;;;;;;;;;5069954;28;904;-73
2023/10/28 12:35:55;;;;;;;;;;;;;;;;;;5071060;28;923;-74
2023/10/28 12:38:20;;;;;;;;;;;;;;;;;;5069861;28;802;-73
2023/10/28 12:40:46;;;;;;;;;;;;;;;;;;5070204;28;884;-73
2023/10/28 12:43:11;;;;;;;;;;;;;;;;;;5069576;28;900;-73
2023/10/28 12:45:37;;;;;;;;;;;;;;;;;;5069865;28;931;-73
2023/10/28 12:48:02;;;;;;;;;;;;;;;;;;5070101;28;853;-73
2023/10/28 12:50:27;;;;;;;;;;;;;;;;;;5067677;28;1893;-73
2023/10/28 12:52:53;;;;;;;;;;;;;;;;;;5070432;28;839;-73
2023/10/28 12:55:18;;;;;;;;;;;;;;;;;;5068353;28;846;-73
2023/10/28 12:57:43;;;;;;;;;;;;;;;;;;5069385;28;877;-73
2023/10/28 13:00:10;;;;;;;;;;;;;;;;;;5072551;28;908;-73
2023/10/28 13:02:36;;;;;;;;;;;;;;;;;;5055893;28;1278;-73
2023/10/28 13:05:02;;;;;;;;;;;;;;;;;;5073886;28;841;-73
2023/10/28 13:07:32;;;;;;;;;;;;;;;;;;5071252;28;1480;-73
2023/10/28 13:09:57;;;;;;;;;;;;;;;;;;5071459;28;1926;-73
2023/10/28 13:12:23;;;;;;;;;;;;;;;;;;5073087;28;864;-73
2023/10/28 13:14:48;;;;;;;;;;;;;;;;;;5073763;28;1057;-73
2023/10/28 13:17:13;;;;;;;;;;;;;;;;;;5074127;28;825;-73
2023/10/28 13:19:39;;;;;;;;;;;;;;;;;;5074324;28;995;-73
2023/10/28 13:22:04;;;;;;;;;;;;;;;;;;5074044;28;979;-73
2023/10/28 13:24:30;;;;;;;;;;;;;;;;;;5073658;28;880;-73
2023/10/28 13:26:55;;;;;;;;;;;;;;;;;;5074378;28;897;-73
2023/10/28 13:29:21;;;;;;;;;;;;;;;;;;5073404;28;1973;-74
2023/10/28 13:31:48;;;;;;;;;;;;;;;;;;5074594;28;876;-74
2023/10/28 13:34:14;;;;;;;;;;;;;;;;;;5073488;28;849;-73
2023/10/28 13:36:39;;;;;;;;;;;;;;;;;;5055450;28;1437;-73
2023/10/28 13:39:05;;;;;;;;;;;;;;;;;;5072994;28;923;-73
2023/10/28 13:41:30;;;;;;;;;;;;;;;;;;5071122;28;1447;-73
2023/10/28 13:43:55;;;;;;;;;;;;;;;;;;5071676;28;1286;-73
2023/10/28 13:46:21;;;;;;;;;;;;;;;;;;5072461;28;1176;-73
2023/10/28 13:48:46;;;;;;;;;;;;;;;;;;5072558;28;1898;-74
2023/10/28 13:51:11;;;;;;;;;;;;;;;;;;5072753;28;908;-73
2023/10/28 13:53:37;;;;;;;;;;;;;;;;;;5071666;28;759;-73
2023/10/28 13:56:03;;;;;;;;;;;;;;;;;;5072723;28;813;-73
2023/10/28 13:58:28;;;;;;;;;;;;;;;;;;5072069;28;849;-73
2023/10/28 14:00:54;;;;;;;;;;;;;;;;;;5072921;28;1038;-73
2023/10/28 14:03:20;;;;;;;;;;;;;;;;;;5072563;28;1042;-73
2023/10/28 14:05:46;;;;;;;;;;;;;;;;;;5073093;28;868;-73
2023/10/28 14:08:11;;;;;;;;;;;;;;;;;;5071713;28;1360;-73
2023/10/28 14:10:36;;;;;;;;;;;;;;;;;;5069708;28;1902;-73
2023/10/28 14:13:01;;;;;;;;;;;;;;;;;;5071786;28;931;-73
2023/10/28 14:15:27;;;;;;;;;;;;;;;;;;5071579;28;1152;-73
2023/10/28 14:17:53;;;;;;;;;;;;;;;;;;5054608;28;1423;-73
2023/10/28 14:20:18;;;;;;;;;;;;;;;;;;5071757;28;1215;-73
2023/10/28 14:22:43;;;;;;;;;;;;;;;;;;5065862;28;1499;-72
2023/10/28 14:25:09;;;;;;;;;;;;;;;;;;5061732;28;1184;-73
2023/10/28 14:27:37;;;;;;;;;;;;;;;;;;5051197;28;1223;-73
2023/10/28 14:30:06;;;;;;;;;;;;;;;;;;5052565;28;1969;-73
2023/10/28 14:32:35;;;;;;;;;;;;;;;;;;5052175;28;892;-73
2023/10/28 14:35:03;;;;;;;;;;;;;;;;;;5034420;28;1081;-73
2023/10/28 14:37:28;;;;;;;;;;;;;;;;;;5050931;28;896;-74
2023/10/28 14:39:53;;;;;;;;;;;;;;;;;;5033956;28;1283;-73
2023/10/28 14:42:18;;;;;;;;;;;;;;;;;;5051772;28;900;-73
2023/10/28 14:44:44;;;;;;;;;;;;;;;;;;5051672;28;936;-73
2023/10/28 14:47:10;;;;;;;;;;;;;;;;;;5050728;28;943;-73
2023/10/28 14:49:35;;;;;;;;;;;;;;;;;;5051421;28;1961;-72
2023/10/28 14:52:00;;;;;;;;;;;;;;;;;;5052064;28;1042;-73
2023/10/28 14:54:28;;;;;;;;;;;;;;;;;;5050013;28;1079;-73
2023/10/28 14:56:54;;;;;;;;;;;;;;;;;;5050728;28;868;-72
2023/10/28 14:59:19;;;;;;;;;;;;;;;;;;5033274;28;1211;-73
2023/10/28 15:01:45;;;;;;;;;;;;;;;;;;5051665;28;939;-73
2023/10/28 15:04:10;;;;;;;;;;;;;;;;;;5051491;28;963;-73
2023/10/28 15:06:36;;;;;;;;;;;;;;;;;;5051008;28;968;-72
2023/10/28 15:09:01;;;;;;;;;;;;;;;;;;5051254;28;1901;-73
2023/10/28 15:11:27;;;;;;;;;;;;;;;;;;5050054;28;1181;-73
2023/10/28 15:13:53;;;;;;;;;;;;;;;;;;5050127;28;1393;-72
2023/10/28 15:16:18;;;;;;;;;;;;;;;;;;5065754;28;1242;-73
2023/10/28 15:18:44;;;;;;;;;;;;;;;;;;5052835;28;896;-73
2023/10/28 15:21:10;;;;;;;;;;;;;;;;;;5052184;28;834;-73
2023/10/28 15:23:36;;;;;;;;;;;;;;;;;;5051991;28;916;-73
2023/10/28 15:26:06;;;;;;;;;;;;;;;;;;5049967;28;1311;-73
2023/10/28 15:28:31;;;;;;;;;;;;;;;;;;5050936;28;1969;-73
2023/10/28 15:30:59;;;;;;;;;;;;;;;;;;5050891;28;845;-73
2023/10/28 15:33:25;;;;;;;;;;;;;;;;;;5050746;28;924;-73
2023/10/28 15:35:50;;;;;;;;;;;;;;;;;;5049736;28;941;-73
2023/10/28 15:38:15;;;;;;;;;;;;;;;;;;5050512;28;916;-73
2023/10/28 15:40:41;;;;;;;;;;;;;;;;;;5051013;28;909;-73
2023/10/28 15:43:06;;;;;;;;;;;;;;;;;;5049981;28;916;-72
2023/10/28 15:45:31;;;;;;;;;;;;;;;;;;5050646;28;975;-71
2023/10/28 15:47:56;;;;;;;;;;;;;;;;;;5051218;28;928;-74
2023/10/28 15:50:22;;;;;;;;;;;;;;;;;;5050260;28;1919;-72
2023/10/28 15:52:48;;;;;;;;;;;;;;;;;;5051243;28;900;-72
2023/10/28 15:55:15;;;;;;;;;;;;;;;;;;5049421;28;1656;-72
2023/10/28 15:57:40;;;;;;;;;;;;;;;;;;5051038;28;919;-72
2023/10/28 16:00:07;;;;;;;;;;;;;;;;;;5050788;28;781;-73
2023/10/28 16:02:33;;;;;;;;;;;;;;;;;;5050563;28;983;-72
2023/10/28 16:04:59;;;;;;;;;;;;;;;;;;5049051;28;1309;-74
2023/10/28 16:07:24;;;;;;;;;;;;;;;;;;5050441;28;1012;-73
2023/10/28 16:09:49;;;;;;;;;;;;;;;;;;5049171;28;1897;-74
2023/10/28 16:12:15;;;;;;;;;;;;;;;;;;5050370;28;813;-73
2023/10/28 16:14:40;;;;;;;;;;;;;;;;;;5049389;28;1363;-73
2023/10/28 16:17:08;;;;;;;;;;;;;;;;;;5050188;28;904;-73
2023/10/28 16:19:34;;;;;;;;;;;;;;;;;;5048259;28;841;-72
2023/10/28 16:21:59;;;;;;;;;;;;;;;;;;5050154;28;939;-72
2023/10/28 16:24:24;;;;;;;;;;;;;;;;;;5049750;28;1019;-73
2023/10/28 16:26:50;;;;;;;;;;;;;;;;;;5050213;28;861;-72
2023/10/28 16:29:15;;;;;;;;;;;;;;;;;;5049501;28;1910;-72
2023/10/28 16:31:41;;;;;;;;;;;;;;;;;;5050242;28;845;-72
2023/10/28 16:34:07;;;;;;;;;;;;;;;;;;5051210;28;896;-72
2023/10/28 16:36:32;;;;;;;;;;;;;;;;;;5054140;28;851;-73
2023/10/28 16:38:57;;;;;;;;;;;;;;;;;;5054439;28;912;-73
2023/10/28 16:41:23;;;;;;;;;;;;;;;;;;5053863;28;896;-73
2023/10/28 16:43:48;;;;;;;;;;;;;;;;;;5052879;28;1168;-72
2023/10/28 16:46:16;;;;;;;;;;;;;;;;;;5054136;28;900;-72
2023/10/28 16:48:41;;;;;;;;;;;;;;;;;;5054320;28;1963;-72
2023/10/28 16:51:10;;;;;;;;;;;;;;;;;;5054165;28;948;-73
2023/10/28 16:53:35;;;;;;;;;;;;;;;;;;5053377;28;881;-73
2023/10/28 16:56:04;;;;;;;;;;;;;;;;;;5053502;28;917;-73
2023/10/28 16:58:29;;;;;;;;;;;;;;;;;;5053323;28;1009;-73
2023/10/28 17:00:55;;;;;;;;;;;;;;;;;;5053386;28;853;-73
2023/10/28 17:03:21;;;;;;;;;;;;;;;;;;5052219;28;1290;-72